MMD1919 EKCH-EKSB
Flight info
| Callsign | MMD1919 |
|---|---|
| Flight time | 0h 35m |
| Altitude | 24000 |
| Route | KOPEX M611 LANGO P999 ALS |
| Aircraft | PC12/L-SDFGRWY/S |
Departure
| Time | 2026-04-26 15:26 |
|---|---|
| Airport | Copenhagen Kastrup Airport (EKCH) |
Arrival
| Time | 2026-04-26 16:02 |
|---|---|
| Airport | Sønderborg Airport (EKSB) |
| Time | Latitude | Longitude | Altitude | Speed | Heading |
|---|---|---|---|---|---|
| 2026-04-26 15:03 | 55.62850 | 12.63297 | 20 ft | 0 kts | 358° |
| 2026-04-26 15:14 | 55.62852 | 12.63298 | 20 ft | 1 kts | 32° |
| 2026-04-26 15:14 | 55.62817 | 12.63315 | 20 ft | 8 kts | 178° |
| 2026-04-26 15:14 | 55.62748 | 12.63312 | 19 ft | 12 kts | 166° |
| 2026-04-26 15:14 | 55.62699 | 12.63404 | 19 ft | 11 kts | 121° |
| 2026-04-26 15:15 | 55.62678 | 12.63461 | 19 ft | 0 kts | 138° |
| 2026-04-26 15:15 | 55.62641 | 12.63504 | 19 ft | 19 kts | 162° |
| 2026-04-26 15:16 | 55.62510 | 12.63664 | 20 ft | 30 kts | 122° |
| 2026-04-26 15:16 | 55.62373 | 12.64042 | 18 ft | 38 kts | 125° |
| 2026-04-26 15:16 | 55.62238 | 12.64373 | 18 ft | 21 kts | 143° |
| 2026-04-26 15:16 | 55.62081 | 12.64446 | 20 ft | 28 kts | 168° |
| 2026-04-26 15:17 | 55.61915 | 12.64500 | 20 ft | 23 kts | 170° |
| 2026-04-26 15:17 | 55.61816 | 12.64538 | 20 ft | 17 kts | 171° |
| 2026-04-26 15:17 | 55.61641 | 12.64518 | 20 ft | 24 kts | 208° |
| 2026-04-26 15:17 | 55.61476 | 12.64333 | 20 ft | 27 kts | 214° |
| 2026-04-26 15:18 | 55.61308 | 12.64142 | 20 ft | 27 kts | 214° |
| 2026-04-26 15:18 | 55.61171 | 12.63981 | 20 ft | 28 kts | 212° |
| 2026-04-26 15:18 | 55.60979 | 12.63762 | 20 ft | 38 kts | 211° |
| 2026-04-26 15:18 | 55.60823 | 12.63586 | 20 ft | 17 kts | 212° |
| 2026-04-26 15:19 | 55.60712 | 12.63459 | 20 ft | 23 kts | 213° |
| 2026-04-26 15:19 | 55.60589 | 12.63292 | 20 ft | 26 kts | 222° |
| 2026-04-26 15:19 | 55.60471 | 12.63123 | 20 ft | 19 kts | 208° |
| 2026-04-26 15:19 | 55.60379 | 12.63214 | 21 ft | 12 kts | 128° |
| 2026-04-26 15:20 | 55.60339 | 12.63361 | 23 ft | 13 kts | 62° |
| 2026-04-26 15:20 | 55.60368 | 12.63386 | 22 ft | 0 kts | 40° |
| 2026-04-26 15:20 | 55.60408 | 12.63447 | 21 ft | 31 kts | 42° |
| 2026-04-26 15:20 | 55.60715 | 12.63924 | 22 ft | 54 kts | 39° |
| 2026-04-26 15:21 | 55.60861 | 12.64157 | 21 ft | 26 kts | 37° |
| 2026-04-26 15:21 | 55.61044 | 12.64427 | 19 ft | 38 kts | 41° |
| 2026-04-26 15:21 | 55.61214 | 12.64697 | 21 ft | 18 kts | 42° |
| 2026-04-26 15:21 | 55.61316 | 12.64698 | 21 ft | 11 kts | 350° |
| 2026-04-26 15:22 | 55.61430 | 12.64659 | 20 ft | 22 kts | 351° |
| 2026-04-26 15:22 | 55.61573 | 12.64619 | 20 ft | 16 kts | 347° |
| 2026-04-26 15:22 | 55.61645 | 12.64523 | 20 ft | 15 kts | 225° |
| 2026-04-26 15:22 | 55.61514 | 12.64379 | 20 ft | 29 kts | 213° |
| 2026-04-26 15:23 | 55.61342 | 12.64179 | 20 ft | 28 kts | 214° |
| 2026-04-26 15:23 | 55.61159 | 12.63970 | 20 ft | 28 kts | 213° |
| 2026-04-26 15:23 | 55.60985 | 12.63769 | 20 ft | 31 kts | 212° |
| 2026-04-26 15:23 | 55.60860 | 12.63623 | 20 ft | 19 kts | 216° |
| 2026-04-26 15:24 | 55.60766 | 12.63645 | 20 ft | 14 kts | 134° |
| 2026-04-26 15:24 | 55.60740 | 12.63699 | 20 ft | 0 kts | 131° |
| 2026-04-26 15:25 | 55.60732 | 12.63715 | 20 ft | 7 kts | 129° |
| 2026-04-26 15:25 | 55.60704 | 12.63780 | 21 ft | 12 kts | 121° |
| 2026-04-26 15:25 | 55.60707 | 12.63914 | 23 ft | 0 kts | 41° |
| 2026-04-26 15:25 | 55.60844 | 12.64124 | 22 ft | 61 kts | 41° |
| 2026-04-26 15:26 | 55.61307 | 12.64818 | 142 ft | 102 kts | 34° |
| 2026-04-26 15:26 | 55.61889 | 12.65681 | 587 ft | 118 kts | 33° |
| 2026-04-26 15:26 | 55.62558 | 12.66735 | 1100 ft | 140 kts | 36° |
| 2026-04-26 15:26 | 55.63331 | 12.67965 | 1739 ft | 155 kts | 38° |
| 2026-04-26 15:27 | 55.64145 | 12.69250 | 2522 ft | 158 kts | 37° |
| 2026-04-26 15:27 | 55.64984 | 12.70543 | 3313 ft | 161 kts | 34° |
| 2026-04-26 15:27 | 55.65866 | 12.71787 | 4087 ft | 164 kts | 36° |
| 2026-04-26 15:27 | 55.66716 | 12.73110 | 4863 ft | 166 kts | 34° |
| 2026-04-26 15:28 | 55.67602 | 12.74451 | 5640 ft | 169 kts | 33° |
| 2026-04-26 15:28 | 55.68511 | 12.75807 | 6383 ft | 175 kts | 33° |
| 2026-04-26 15:28 | 55.69475 | 12.77317 | 6807 ft | 200 kts | 45° |
| 2026-04-26 15:28 | 55.69877 | 12.79772 | 7280 ft | 221 kts | 89° |
| 2026-04-26 15:29 | 55.69503 | 12.82427 | 7816 ft | 229 kts | 121° |
| 2026-04-26 15:29 | 55.68263 | 12.84173 | 8357 ft | 232 kts | 162° |
| 2026-04-26 15:29 | 55.65366 | 12.83056 | 9470 ft | 216 kts | 232° |
| 2026-04-26 15:30 | 55.63441 | 12.78922 | 10571 ft | 221 kts | 238° |
| 2026-04-26 15:30 | 55.62453 | 12.76805 | 11075 ft | 225 kts | 238° |
| 2026-04-26 15:30 | 55.61441 | 12.74670 | 11606 ft | 227 kts | 238° |
| 2026-04-26 15:31 | 55.60423 | 12.72516 | 12140 ft | 229 kts | 238° |
| 2026-04-26 15:31 | 55.58375 | 12.68178 | 13230 ft | 231 kts | 238° |
| 2026-04-26 15:31 | 55.57344 | 12.66003 | 13788 ft | 231 kts | 239° |
| 2026-04-26 15:32 | 55.55980 | 12.63124 | 14492 ft | 230 kts | 239° |
| 2026-04-26 15:32 | 55.54303 | 12.59602 | 15307 ft | 215 kts | 240° |
| 2026-04-26 15:32 | 55.53331 | 12.57545 | 15814 ft | 217 kts | 240° |
| 2026-04-26 15:33 | 55.52362 | 12.55500 | 16401 ft | 218 kts | 240° |
| 2026-04-26 15:33 | 55.51385 | 12.53443 | 16966 ft | 220 kts | 240° |
| 2026-04-26 15:33 | 55.50411 | 12.51396 | 17515 ft | 221 kts | 240° |
| 2026-04-26 15:33 | 55.49417 | 12.49310 | 18059 ft | 223 kts | 240° |
| 2026-04-26 15:34 | 55.48416 | 12.47211 | 18591 ft | 224 kts | 240° |
| 2026-04-26 15:34 | 55.47409 | 12.45100 | 19057 ft | 226 kts | 240° |
| 2026-04-26 15:34 | 55.46393 | 12.42974 | 19533 ft | 227 kts | 240° |
| 2026-04-26 15:34 | 55.45373 | 12.40838 | 20006 ft | 229 kts | 240° |
| 2026-04-26 15:35 | 55.44344 | 12.38688 | 20483 ft | 230 kts | 240° |
| 2026-04-26 15:35 | 55.43311 | 12.36531 | 20934 ft | 231 kts | 239° |
| 2026-04-26 15:35 | 55.42272 | 12.34362 | 21369 ft | 233 kts | 239° |
| 2026-04-26 15:35 | 55.41225 | 12.32181 | 21779 ft | 234 kts | 239° |
| 2026-04-26 15:36 | 55.40172 | 12.29987 | 22165 ft | 235 kts | 239° |
| 2026-04-26 15:36 | 55.39110 | 12.27779 | 22537 ft | 237 kts | 239° |
| 2026-04-26 15:36 | 55.38045 | 12.25567 | 22890 ft | 237 kts | 238° |
| 2026-04-26 15:36 | 55.36976 | 12.23346 | 23240 ft | 238 kts | 238° |
| 2026-04-26 15:37 | 55.35903 | 12.21118 | 23583 ft | 239 kts | 238° |
| 2026-04-26 15:37 | 55.34826 | 12.18886 | 23907 ft | 240 kts | 238° |
| 2026-04-26 15:37 | 55.33742 | 12.16640 | 24140 ft | 243 kts | 238° |
| 2026-04-26 15:37 | 55.32628 | 12.14322 | 24141 ft | 253 kts | 238° |
| 2026-04-26 15:38 | 55.31474 | 12.11936 | 24149 ft | 259 kts | 238° |
| 2026-04-26 15:38 | 55.30295 | 12.09507 | 24155 ft | 263 kts | 237° |
| 2026-04-26 15:38 | 55.29103 | 12.07053 | 24165 ft | 265 kts | 237° |
| 2026-04-26 15:38 | 55.27904 | 12.04582 | 24173 ft | 266 kts | 237° |
| 2026-04-26 15:39 | 55.27108 | 12.02942 | 24210 ft | 266 kts | 237° |
| 2026-04-26 15:39 | 55.25916 | 12.00493 | 24287 ft | 265 kts | 237° |
| 2026-04-26 15:39 | 55.24330 | 11.97230 | 24288 ft | 267 kts | 237° |
| 2026-04-26 15:39 | 55.23921 | 11.96390 | 24288 ft | 267 kts | 237° |
| 2026-04-26 15:40 | 55.22147 | 11.92077 | 24283 ft | 256 kts | 255° |
| 2026-04-26 15:40 | 55.21772 | 11.90087 | 24286 ft | 253 kts | 259° |
| 2026-04-26 15:40 | 55.21229 | 11.87145 | 24288 ft | 255 kts | 256° |
| 2026-04-26 15:40 | 55.20539 | 11.84273 | 24285 ft | 257 kts | 251° |
| 2026-04-26 15:41 | 55.19778 | 11.81484 | 24288 ft | 257 kts | 251° |
| 2026-04-26 15:41 | 55.19029 | 11.78651 | 24264 ft | 258 kts | 252° |
| 2026-04-26 15:41 | 55.18292 | 11.75751 | 24009 ft | 263 kts | 252° |
| 2026-04-26 15:41 | 55.17548 | 11.72851 | 23646 ft | 259 kts | 252° |
| 2026-04-26 15:42 | 55.16809 | 11.70010 | 23299 ft | 255 kts | 252° |
| 2026-04-26 15:42 | 55.16076 | 11.67182 | 22948 ft | 256 kts | 252° |
| 2026-04-26 15:42 | 55.15342 | 11.64343 | 22609 ft | 258 kts | 252° |
| 2026-04-26 15:42 | 55.14599 | 11.61484 | 22278 ft | 259 kts | 252° |
| 2026-04-26 15:43 | 55.13852 | 11.58611 | 21941 ft | 260 kts | 252° |
| 2026-04-26 15:43 | 55.13099 | 11.55716 | 21632 ft | 262 kts | 252° |
| 2026-04-26 15:43 | 55.11581 | 11.49894 | 21026 ft | 265 kts | 252° |
| 2026-04-26 15:44 | 55.10816 | 11.46966 | 20730 ft | 265 kts | 252° |
| 2026-04-26 15:44 | 55.09278 | 11.41089 | 20154 ft | 267 kts | 252° |
| 2026-04-26 15:44 | 55.08506 | 11.38149 | 19866 ft | 267 kts | 252° |
| 2026-04-26 15:45 | 55.06960 | 11.32265 | 19324 ft | 267 kts | 252° |
| 2026-04-26 15:45 | 55.06185 | 11.29317 | 19055 ft | 268 kts | 252° |
| 2026-04-26 15:46 | 55.04620 | 11.23392 | 18530 ft | 270 kts | 252° |
| 2026-04-26 15:46 | 55.03835 | 11.20418 | 18239 ft | 270 kts | 252° |
| 2026-04-26 15:46 | 55.03057 | 11.17479 | 17953 ft | 271 kts | 252° |
| 2026-04-26 15:46 | 55.02523 | 11.15464 | 17760 ft | 271 kts | 251° |
| 2026-04-26 15:47 | 55.01463 | 11.11470 | 17359 ft | 272 kts | 251° |
| 2026-04-26 15:47 | 54.99876 | 11.05499 | 16821 ft | 274 kts | 251° |
| 2026-04-26 15:47 | 54.99074 | 11.02486 | 16556 ft | 275 kts | 251° |
| 2026-04-26 15:48 | 54.98269 | 10.99470 | 16290 ft | 275 kts | 251° |
| 2026-04-26 15:48 | 54.97464 | 10.96461 | 16039 ft | 274 kts | 251° |
| 2026-04-26 15:48 | 54.96660 | 10.93459 | 15762 ft | 274 kts | 251° |
| 2026-04-26 15:48 | 54.95858 | 10.90458 | 15514 ft | 273 kts | 251° |
| 2026-04-26 15:49 | 54.95060 | 10.87467 | 15258 ft | 271 kts | 252° |
| 2026-04-26 15:49 | 54.94543 | 10.84366 | 15007 ft | 265 kts | 265° |
| 2026-04-26 15:49 | 54.94370 | 10.81212 | 14765 ft | 261 kts | 271° |
| 2026-04-26 15:49 | 54.94242 | 10.78066 | 14529 ft | 261 kts | 270° |
| 2026-04-26 15:50 | 54.94099 | 10.74927 | 14297 ft | 260 kts | 270° |
| 2026-04-26 15:50 | 54.93958 | 10.71796 | 14062 ft | 259 kts | 270° |
| 2026-04-26 15:50 | 54.93821 | 10.68673 | 13803 ft | 259 kts | 270° |
| 2026-04-26 15:50 | 54.93683 | 10.65555 | 13540 ft | 258 kts | 270° |
| 2026-04-26 15:51 | 54.93543 | 10.62447 | 13279 ft | 258 kts | 270° |
| 2026-04-26 15:51 | 54.93403 | 10.59340 | 13025 ft | 258 kts | 270° |
| 2026-04-26 15:51 | 54.93263 | 10.56236 | 12777 ft | 257 kts | 270° |
| 2026-04-26 15:51 | 54.93121 | 10.53134 | 12533 ft | 257 kts | 270° |
| 2026-04-26 15:52 | 54.92979 | 10.50035 | 12294 ft | 257 kts | 270° |
| 2026-04-26 15:52 | 54.92837 | 10.46946 | 12055 ft | 256 kts | 270° |
| 2026-04-26 15:52 | 54.92693 | 10.43858 | 11820 ft | 256 kts | 270° |
| 2026-04-26 15:52 | 54.92598 | 10.41813 | 11665 ft | 256 kts | 270° |
| 2026-04-26 15:53 | 54.92407 | 10.37733 | 11358 ft | 255 kts | 270° |
| 2026-04-26 15:53 | 54.92262 | 10.34660 | 11129 ft | 255 kts | 270° |
| 2026-04-26 15:53 | 54.92117 | 10.31591 | 10903 ft | 254 kts | 270° |
| 2026-04-26 15:53 | 54.91971 | 10.28523 | 10506 ft | 255 kts | 270° |
| 2026-04-26 15:54 | 54.91824 | 10.25480 | 10081 ft | 251 kts | 270° |
| 2026-04-26 15:54 | 54.91676 | 10.22470 | 9620 ft | 249 kts | 269° |
| 2026-04-26 15:54 | 54.91515 | 10.19488 | 9167 ft | 247 kts | 266° |
| 2026-04-26 15:54 | 54.91095 | 10.16596 | 8719 ft | 245 kts | 256° |
| 2026-04-26 15:55 | 54.90550 | 10.13907 | 8274 ft | 227 kts | 254° |
| 2026-04-26 15:55 | 54.90001 | 10.11414 | 7826 ft | 217 kts | 249° |
| 2026-04-26 15:55 | 54.89307 | 10.09144 | 7297 ft | 206 kts | 244° |
| 2026-04-26 15:55 | 54.88626 | 10.07086 | 6647 ft | 191 kts | 243° |
| 2026-04-26 15:56 | 54.87915 | 10.05183 | 5930 ft | 184 kts | 239° |
| 2026-04-26 15:56 | 54.87215 | 10.03374 | 5228 ft | 178 kts | 239° |
| 2026-04-26 15:56 | 54.86544 | 10.01602 | 4561 ft | 174 kts | 239° |
| 2026-04-26 15:56 | 54.86022 | 9.99747 | 3917 ft | 170 kts | 252° |
| 2026-04-26 15:57 | 54.85673 | 9.97796 | 3328 ft | 170 kts | 258° |
| 2026-04-26 15:57 | 54.85586 | 9.95765 | 2798 ft | 168 kts | 284° |
| 2026-04-26 15:57 | 54.86297 | 9.94263 | 2521 ft | 165 kts | 318° |
| 2026-04-26 15:57 | 54.86878 | 9.93413 | 2383 ft | 165 kts | 316° |
| 2026-04-26 15:58 | 54.87976 | 9.91709 | 2098 ft | 148 kts | 317° |
| 2026-04-26 15:58 | 54.88698 | 9.90672 | 1880 ft | 129 kts | 316° |
| 2026-04-26 15:58 | 54.89340 | 9.89729 | 1725 ft | 113 kts | 315° |
| 2026-04-26 15:58 | 54.89903 | 9.88891 | 1563 ft | 99 kts | 314° |
| 2026-04-26 15:59 | 54.90407 | 9.88137 | 1428 ft | 94 kts | 313° |
| 2026-04-26 15:59 | 54.90901 | 9.87393 | 1306 ft | 95 kts | 313° |
| 2026-04-26 15:59 | 54.91408 | 9.86623 | 1182 ft | 98 kts | 315° |
| 2026-04-26 15:59 | 54.91933 | 9.85878 | 1022 ft | 94 kts | 315° |
| 2026-04-26 16:00 | 54.92439 | 9.85166 | 864 ft | 92 kts | 315° |
| 2026-04-26 16:00 | 54.92915 | 9.84488 | 785 ft | 88 kts | 313° |
| 2026-04-26 16:00 | 54.93366 | 9.83806 | 673 ft | 85 kts | 310° |
| 2026-04-26 16:00 | 54.93813 | 9.83138 | 533 ft | 83 kts | 311° |
| 2026-04-26 16:01 | 54.94233 | 9.82506 | 393 ft | 81 kts | 310° |
| 2026-04-26 16:01 | 54.94669 | 9.81835 | 300 ft | 86 kts | 312° |
| 2026-04-26 16:01 | 54.95122 | 9.81175 | 223 ft | 84 kts | 308° |
| 2026-04-26 16:01 | 54.95565 | 9.80487 | 116 ft | 86 kts | 313° |
| 2026-04-26 16:02 | 54.96008 | 9.79822 | 32 ft | 79 kts | 311° |
| 2026-04-26 16:02 | 54.96340 | 9.79311 | 29 ft | 42 kts | 319° |
| 2026-04-26 16:02 | 54.96467 | 9.79123 | 28 ft | 14 kts | 318° |
| 2026-04-26 16:02 | 54.96481 | 9.79038 | 27 ft | 13 kts | 243° |
| 2026-04-26 16:03 | 54.96417 | 9.78907 | 26 ft | 12 kts | 231° |
| 2026-04-26 16:03 | 54.96371 | 9.78814 | 26 ft | 10 kts | 230° |
| 2026-04-26 16:03 | 54.96334 | 9.78741 | 26 ft | 1 kts | 232° |
| 2026-04-26 16:03 | 54.96311 | 9.78737 | 26 ft | 6 kts | 139° |
| 2026-04-26 16:04 | 54.96286 | 9.78752 | 26 ft | 5 kts | 227° |
| 2026-04-26 16:04 | 54.96295 | 9.78716 | 26 ft | 0 kts | 322° |